CSH9420 ZUCK-ZSSS
Flight info
| Callsign | CSH9420 |
|---|---|
| Flight time | 2h 3m |
| Altitude | 29100 |
| Route | OLNER B213 WHA R343 SASAN |
| Aircraft | B738/M-SDE2E3FGHIRWXY/LB1 |
Departure
| Time | 2026-05-07 13:27 |
|---|---|
| Airport | Chongqing Jiangbei International Airport (ZUCK) |
Arrival
| Time | 2026-05-07 15:31 |
|---|---|
| Airport | Shanghai Hongqiao International Airport (ZSSS) |
| Time | Latitude | Longitude | Altitude | Speed | Heading |
|---|---|---|---|---|---|
| 2026-05-07 13:10 | 29.71291 | 106.64909 | 1374 ft | 0 kts | 122° |
| 2026-05-07 13:15 | 29.71292 | 106.64906 | 1374 ft | 1 kts | 122° |
| 2026-05-07 13:15 | 29.71300 | 106.64892 | 1374 ft | 2 kts | 122° |
| 2026-05-07 13:16 | 29.71307 | 106.64880 | 1374 ft | 0 kts | 122° |
| 2026-05-07 13:16 | 29.71313 | 106.64867 | 1374 ft | 2 kts | 110° |
| 2026-05-07 13:16 | 29.71317 | 106.64851 | 1374 ft | 2 kts | 97° |
| 2026-05-07 13:16 | 29.71317 | 106.64833 | 1374 ft | 2 kts | 83° |
| 2026-05-07 13:17 | 29.71314 | 106.64816 | 1374 ft | 2 kts | 70° |
| 2026-05-07 13:17 | 29.71308 | 106.64801 | 1374 ft | 2 kts | 57° |
| 2026-05-07 13:17 | 29.71298 | 106.64787 | 1374 ft | 2 kts | 43° |
| 2026-05-07 13:17 | 29.71291 | 106.64780 | 1374 ft | 0 kts | 35° |
| 2026-05-07 13:18 | 29.71286 | 106.64777 | 1374 ft | 0 kts | 33° |
| 2026-05-07 13:21 | 29.71294 | 106.64782 | 1374 ft | 2 kts | 32° |
| 2026-05-07 13:21 | 29.71320 | 106.64788 | 1374 ft | 5 kts | 350° |
| 2026-05-07 13:21 | 29.71345 | 106.64754 | 1374 ft | 7 kts | 285° |
| 2026-05-07 13:22 | 29.71363 | 106.64691 | 1374 ft | 9 kts | 288° |
| 2026-05-07 13:22 | 29.71380 | 106.64619 | 1374 ft | 8 kts | 266° |
| 2026-05-07 13:22 | 29.71346 | 106.64578 | 1374 ft | 7 kts | 199° |
| 2026-05-07 13:22 | 29.71291 | 106.64558 | 1374 ft | 10 kts | 197° |
| 2026-05-07 13:23 | 29.71211 | 106.64529 | 1374 ft | 13 kts | 197° |
| 2026-05-07 13:23 | 29.71108 | 106.64495 | 1374 ft | 16 kts | 196° |
| 2026-05-07 13:23 | 29.70984 | 106.64452 | 1374 ft | 19 kts | 197° |
| 2026-05-07 13:23 | 29.70854 | 106.64410 | 1374 ft | 18 kts | 195° |
| 2026-05-07 13:24 | 29.70741 | 106.64368 | 1374 ft | 16 kts | 196° |
| 2026-05-07 13:24 | 29.70651 | 106.64338 | 1374 ft | 6 kts | 197° |
| 2026-05-07 13:24 | 29.70623 | 106.64315 | 1374 ft | 4 kts | 233° |
| 2026-05-07 13:24 | 29.70619 | 106.64287 | 1374 ft | 3 kts | 284° |
| 2026-05-07 13:25 | 29.70624 | 106.64265 | 1374 ft | 1 kts | 284° |
| 2026-05-07 13:25 | 29.70626 | 106.64257 | 1374 ft | 0 kts | 285° |
| 2026-05-07 13:25 | 29.70627 | 106.64252 | 1374 ft | 2 kts | 286° |
| 2026-05-07 13:25 | 29.70636 | 106.64219 | 1374 ft | 6 kts | 287° |
| 2026-05-07 13:26 | 29.70652 | 106.64165 | 1374 ft | 6 kts | 297° |
| 2026-05-07 13:26 | 29.70686 | 106.64146 | 1374 ft | 5 kts | 2° |
| 2026-05-07 13:26 | 29.70710 | 106.64152 | 1374 ft | 0 kts | 15° |
| 2026-05-07 13:27 | 29.70766 | 106.64169 | 1374 ft | 34 kts | 17° |
| 2026-05-07 13:27 | 29.71253 | 106.64342 | 1374 ft | 107 kts | 17° |
| 2026-05-07 13:27 | 29.72168 | 106.64655 | 1395 ft | 164 kts | 17° |
| 2026-05-07 13:27 | 29.73291 | 106.65056 | 1978 ft | 174 kts | 19° |
| 2026-05-07 13:28 | 29.74468 | 106.65517 | 2553 ft | 194 kts | 21° |
| 2026-05-07 13:28 | 29.75868 | 106.65990 | 2890 ft | 219 kts | 17° |
| 2026-05-07 13:28 | 29.77373 | 106.66461 | 3473 ft | 229 kts | 18° |
| 2026-05-07 13:28 | 29.78928 | 106.66986 | 4059 ft | 232 kts | 19° |
| 2026-05-07 13:29 | 29.80477 | 106.67523 | 4600 ft | 234 kts | 18° |
| 2026-05-07 13:29 | 29.82082 | 106.68076 | 5114 ft | 249 kts | 18° |
| 2026-05-07 13:29 | 29.83758 | 106.68655 | 5630 ft | 260 kts | 18° |
| 2026-05-07 13:29 | 29.85507 | 106.69262 | 6123 ft | 268 kts | 18° |
| 2026-05-07 13:30 | 29.87299 | 106.69884 | 6622 ft | 269 kts | 18° |
| 2026-05-07 13:30 | 29.89111 | 106.70514 | 7128 ft | 273 kts | 18° |
| 2026-05-07 13:30 | 29.90939 | 106.71150 | 7630 ft | 276 kts | 18° |
| 2026-05-07 13:30 | 29.92773 | 106.71787 | 8128 ft | 278 kts | 18° |
| 2026-05-07 13:31 | 29.94621 | 106.72423 | 8627 ft | 279 kts | 17° |
| 2026-05-07 13:31 | 29.96506 | 106.73080 | 9135 ft | 282 kts | 17° |
| 2026-05-07 13:31 | 29.98402 | 106.73735 | 9639 ft | 284 kts | 17° |
| 2026-05-07 13:31 | 30.00311 | 106.74403 | 10144 ft | 286 kts | 17° |
| 2026-05-07 13:32 | 30.02198 | 106.75070 | 10641 ft | 289 kts | 17° |
| 2026-05-07 13:32 | 30.04156 | 106.75771 | 11134 ft | 301 kts | 17° |
| 2026-05-07 13:32 | 30.06217 | 106.76510 | 11619 ft | 313 kts | 17° |
| 2026-05-07 13:32 | 30.08315 | 106.77258 | 12092 ft | 318 kts | 17° |
| 2026-05-07 13:33 | 30.10429 | 106.78014 | 12566 ft | 320 kts | 18° |
| 2026-05-07 13:33 | 30.12514 | 106.78950 | 13037 ft | 323 kts | 27° |
| 2026-05-07 13:33 | 30.14336 | 106.80432 | 13504 ft | 330 kts | 45° |
| 2026-05-07 13:33 | 30.15851 | 106.82516 | 14007 ft | 341 kts | 56° |
| 2026-05-07 13:34 | 30.16993 | 106.84959 | 14479 ft | 351 kts | 70° |
| 2026-05-07 13:34 | 30.17518 | 106.90593 | 15425 ft | 360 kts | 99° |
| 2026-05-07 13:34 | 30.17036 | 106.93400 | 15900 ft | 361 kts | 105° |
| 2026-05-07 13:35 | 30.16388 | 106.96255 | 16379 ft | 363 kts | 108° |
| 2026-05-07 13:35 | 30.15692 | 106.99052 | 16851 ft | 367 kts | 108° |
| 2026-05-07 13:35 | 30.14945 | 107.01900 | 17328 ft | 370 kts | 109° |
| 2026-05-07 13:35 | 30.14175 | 107.04723 | 17799 ft | 373 kts | 110° |
| 2026-05-07 13:36 | 30.13374 | 107.07594 | 18277 ft | 376 kts | 110° |
| 2026-05-07 13:36 | 30.12556 | 107.10483 | 18753 ft | 379 kts | 110° |
| 2026-05-07 13:36 | 30.11720 | 107.13410 | 19234 ft | 382 kts | 110° |
| 2026-05-07 13:36 | 30.10893 | 107.16348 | 19711 ft | 385 kts | 110° |
| 2026-05-07 13:37 | 30.10078 | 107.19304 | 20187 ft | 389 kts | 110° |
| 2026-05-07 13:37 | 30.09267 | 107.22280 | 20661 ft | 392 kts | 109° |
| 2026-05-07 13:37 | 30.08447 | 107.25303 | 21139 ft | 395 kts | 109° |
| 2026-05-07 13:37 | 30.07626 | 107.28344 | 21616 ft | 398 kts | 109° |
| 2026-05-07 13:38 | 30.06795 | 107.31432 | 22095 ft | 402 kts | 109° |
| 2026-05-07 13:38 | 30.05966 | 107.34512 | 22571 ft | 405 kts | 109° |
| 2026-05-07 13:38 | 30.05127 | 107.37633 | 23028 ft | 409 kts | 109° |
| 2026-05-07 13:38 | 30.04280 | 107.40784 | 23455 ft | 412 kts | 109° |
| 2026-05-07 13:39 | 30.03432 | 107.43935 | 23878 ft | 415 kts | 109° |
| 2026-05-07 13:39 | 30.02562 | 107.47169 | 24311 ft | 417 kts | 109° |
| 2026-05-07 13:39 | 30.01707 | 107.50345 | 24733 ft | 420 kts | 109° |
| 2026-05-07 13:39 | 30.00827 | 107.53610 | 25164 ft | 424 kts | 109° |
| 2026-05-07 13:40 | 29.99941 | 107.56895 | 25594 ft | 427 kts | 109° |
| 2026-05-07 13:40 | 29.99055 | 107.60173 | 26021 ft | 430 kts | 109° |
| 2026-05-07 13:40 | 29.98164 | 107.63469 | 26446 ft | 433 kts | 109° |
| 2026-05-07 13:40 | 29.97266 | 107.66791 | 26872 ft | 436 kts | 110° |
| 2026-05-07 13:41 | 29.96364 | 107.70124 | 27295 ft | 438 kts | 110° |
| 2026-05-07 13:41 | 29.95447 | 107.73508 | 27723 ft | 441 kts | 110° |
| 2026-05-07 13:41 | 29.94595 | 107.76890 | 28143 ft | 443 kts | 105° |
| 2026-05-07 13:41 | 29.94049 | 107.80418 | 28569 ft | 447 kts | 98° |
| 2026-05-07 13:42 | 29.94001 | 107.83993 | 28988 ft | 450 kts | 85° |
| 2026-05-07 13:42 | 29.94551 | 107.87563 | 29236 ft | 454 kts | 76° |
| 2026-05-07 13:42 | 29.95388 | 107.91099 | 29230 ft | 461 kts | 74° |
| 2026-05-07 13:43 | 29.97197 | 107.98265 | 29225 ft | 463 kts | 74° |
| 2026-05-07 13:43 | 29.98986 | 108.05358 | 29227 ft | 459 kts | 74° |
| 2026-05-07 13:44 | 30.00763 | 108.12425 | 29229 ft | 461 kts | 74° |
| 2026-05-07 13:44 | 30.02559 | 108.19585 | 29227 ft | 469 kts | 74° |
| 2026-05-07 13:45 | 30.04371 | 108.26831 | 29227 ft | 468 kts | 74° |
| 2026-05-07 13:45 | 30.06173 | 108.34052 | 29228 ft | 467 kts | 74° |
| 2026-05-07 13:46 | 30.07967 | 108.41258 | 29228 ft | 467 kts | 74° |
| 2026-05-07 13:46 | 30.09762 | 108.48480 | 29228 ft | 467 kts | 74° |
| 2026-05-07 13:47 | 30.11549 | 108.55695 | 29228 ft | 467 kts | 74° |
| 2026-05-07 13:47 | 30.13556 | 108.62849 | 29228 ft | 468 kts | 71° |
| 2026-05-07 13:48 | 30.15652 | 108.69933 | 29227 ft | 467 kts | 71° |
| 2026-05-07 13:48 | 30.17747 | 108.77065 | 29228 ft | 467 kts | 71° |
| 2026-05-07 13:49 | 30.19821 | 108.84174 | 29228 ft | 468 kts | 71° |
| 2026-05-07 13:49 | 30.21899 | 108.91329 | 29228 ft | 467 kts | 71° |
| 2026-05-07 13:50 | 30.23801 | 108.98541 | 29228 ft | 467 kts | 74° |
| 2026-05-07 13:50 | 30.25543 | 109.05727 | 29228 ft | 465 kts | 74° |
| 2026-05-07 13:51 | 30.27301 | 109.12955 | 29228 ft | 463 kts | 74° |
| 2026-05-07 13:51 | 30.29050 | 109.20129 | 29228 ft | 461 kts | 73° |
| 2026-05-07 13:52 | 30.30785 | 109.27245 | 29228 ft | 460 kts | 73° |
| 2026-05-07 13:52 | 30.32523 | 109.34379 | 29228 ft | 461 kts | 73° |
| 2026-05-07 13:53 | 30.34273 | 109.41557 | 29228 ft | 461 kts | 73° |
| 2026-05-07 13:53 | 30.36012 | 109.48705 | 29228 ft | 461 kts | 73° |
| 2026-05-07 13:54 | 30.37732 | 109.55848 | 29228 ft | 461 kts | 73° |
| 2026-05-07 13:54 | 30.39286 | 109.63055 | 29228 ft | 461 kts | 79° |
| 2026-05-07 13:55 | 30.40367 | 109.70406 | 29228 ft | 461 kts | 80° |
| 2026-05-07 13:55 | 30.41432 | 109.77720 | 29228 ft | 461 kts | 80° |
| 2026-05-07 13:56 | 30.42499 | 109.85050 | 29227 ft | 461 kts | 80° |
| 2026-05-07 13:56 | 30.43564 | 109.92368 | 29228 ft | 461 kts | 80° |
| 2026-05-07 13:57 | 30.44627 | 109.99693 | 29228 ft | 461 kts | 80° |
| 2026-05-07 13:57 | 30.45692 | 110.07057 | 29228 ft | 461 kts | 80° |
| 2026-05-07 13:58 | 30.46745 | 110.14365 | 29228 ft | 461 kts | 80° |
| 2026-05-07 13:58 | 30.47799 | 110.21710 | 29215 ft | 461 kts | 80° |
| 2026-05-07 13:59 | 30.48845 | 110.29027 | 29190 ft | 461 kts | 80° |
| 2026-05-07 13:59 | 30.49893 | 110.36382 | 29165 ft | 461 kts | 80° |
| 2026-05-07 14:00 | 30.50935 | 110.43737 | 29147 ft | 461 kts | 80° |
| 2026-05-07 14:00 | 30.51973 | 110.51084 | 29147 ft | 460 kts | 80° |
| 2026-05-07 14:01 | 30.53012 | 110.58473 | 29147 ft | 461 kts | 80° |
| 2026-05-07 14:01 | 30.54043 | 110.65841 | 29147 ft | 461 kts | 81° |
| 2026-05-07 14:02 | 30.55070 | 110.73191 | 29147 ft | 461 kts | 81° |
| 2026-05-07 14:02 | 30.56094 | 110.80551 | 29147 ft | 461 kts | 81° |
| 2026-05-07 14:03 | 30.57107 | 110.87875 | 29150 ft | 461 kts | 81° |
| 2026-05-07 14:03 | 30.58118 | 110.95222 | 29164 ft | 460 kts | 81° |
| 2026-05-07 14:04 | 30.59117 | 111.02518 | 29180 ft | 459 kts | 81° |
| 2026-05-07 14:04 | 30.60115 | 111.09834 | 29194 ft | 459 kts | 81° |
| 2026-05-07 14:05 | 30.61111 | 111.17163 | 29201 ft | 458 kts | 80° |
| 2026-05-07 14:05 | 30.62102 | 111.24480 | 29201 ft | 458 kts | 80° |
| 2026-05-07 14:06 | 30.63085 | 111.31763 | 29201 ft | 458 kts | 81° |
| 2026-05-07 14:06 | 30.64068 | 111.39100 | 29201 ft | 458 kts | 80° |
| 2026-05-07 14:07 | 30.65036 | 111.46355 | 29201 ft | 458 kts | 81° |
| 2026-05-07 14:07 | 30.65586 | 111.53751 | 29201 ft | 458 kts | 86° |
| 2026-05-07 14:08 | 30.65947 | 111.61138 | 29201 ft | 458 kts | 86° |
| 2026-05-07 14:08 | 30.66311 | 111.68491 | 29201 ft | 458 kts | 86° |
| 2026-05-07 14:09 | 30.66682 | 111.75861 | 29210 ft | 458 kts | 86° |
| 2026-05-07 14:09 | 30.67053 | 111.83265 | 29228 ft | 458 kts | 86° |
| 2026-05-07 14:10 | 30.67424 | 111.90698 | 29228 ft | 459 kts | 86° |
| 2026-05-07 14:10 | 30.67801 | 111.98065 | 29228 ft | 459 kts | 85° |
| 2026-05-07 14:11 | 30.68309 | 112.05450 | 29228 ft | 458 kts | 85° |
| 2026-05-07 14:11 | 30.68820 | 112.12788 | 29228 ft | 459 kts | 85° |
| 2026-05-07 14:12 | 30.69327 | 112.20187 | 29228 ft | 458 kts | 85° |
| 2026-05-07 14:12 | 30.69824 | 112.27537 | 29228 ft | 458 kts | 85° |
| 2026-05-07 14:13 | 30.70317 | 112.34918 | 29228 ft | 459 kts | 85° |
| 2026-05-07 14:13 | 30.70804 | 112.42275 | 29227 ft | 458 kts | 85° |
| 2026-05-07 14:14 | 30.71287 | 112.49659 | 29228 ft | 458 kts | 85° |
| 2026-05-07 14:14 | 30.71765 | 112.57012 | 29228 ft | 458 kts | 85° |
| 2026-05-07 14:15 | 30.72240 | 112.64407 | 29228 ft | 458 kts | 85° |
| 2026-05-07 14:15 | 30.72712 | 112.71775 | 29228 ft | 458 kts | 85° |
| 2026-05-07 14:16 | 30.73183 | 112.79211 | 29228 ft | 459 kts | 85° |
| 2026-05-07 14:16 | 30.73647 | 112.86623 | 29228 ft | 458 kts | 85° |
| 2026-05-07 14:17 | 30.74108 | 112.94035 | 29228 ft | 458 kts | 85° |
| 2026-05-07 14:17 | 30.74562 | 113.01440 | 29228 ft | 458 kts | 85° |
| 2026-05-07 14:18 | 30.75011 | 113.08806 | 29228 ft | 457 kts | 85° |
| 2026-05-07 14:18 | 30.75429 | 113.16223 | 29228 ft | 457 kts | 87° |
| 2026-05-07 14:19 | 30.75624 | 113.23651 | 29228 ft | 458 kts | 88° |
| 2026-05-07 14:19 | 30.75798 | 113.31007 | 29228 ft | 458 kts | 88° |
| 2026-05-07 14:20 | 30.75976 | 113.38440 | 29228 ft | 458 kts | 88° |
| 2026-05-07 14:20 | 30.76153 | 113.45814 | 29228 ft | 458 kts | 88° |
| 2026-05-07 14:21 | 30.76328 | 113.53176 | 29228 ft | 458 kts | 88° |
| 2026-05-07 14:21 | 30.76502 | 113.60587 | 29228 ft | 458 kts | 88° |
| 2026-05-07 14:22 | 30.76672 | 113.68018 | 29228 ft | 457 kts | 88° |
| 2026-05-07 14:22 | 30.76839 | 113.75413 | 29228 ft | 458 kts | 88° |
| 2026-05-07 14:23 | 30.77002 | 113.82807 | 29228 ft | 458 kts | 88° |
| 2026-05-07 14:23 | 30.77160 | 113.90177 | 29228 ft | 458 kts | 88° |
| 2026-05-07 14:24 | 30.77314 | 113.97608 | 29228 ft | 458 kts | 88° |
| 2026-05-07 14:24 | 30.77507 | 114.04970 | 29228 ft | 458 kts | 87° |
| 2026-05-07 14:25 | 30.77821 | 114.12349 | 29228 ft | 457 kts | 86° |
| 2026-05-07 14:25 | 30.78471 | 114.19685 | 29229 ft | 457 kts | 79° |
| 2026-05-07 14:26 | 30.80312 | 114.26723 | 29231 ft | 456 kts | 68° |
| 2026-05-07 14:26 | 30.82567 | 114.33626 | 29228 ft | 456 kts | 68° |
| 2026-05-07 14:27 | 30.84798 | 114.40565 | 29228 ft | 456 kts | 68° |
| 2026-05-07 14:27 | 30.87015 | 114.47462 | 29227 ft | 456 kts | 68° |
| 2026-05-07 14:28 | 30.89252 | 114.54353 | 29227 ft | 456 kts | 68° |
| 2026-05-07 14:28 | 30.91503 | 114.61294 | 29228 ft | 459 kts | 68° |
| 2026-05-07 14:29 | 30.93773 | 114.68300 | 29228 ft | 461 kts | 68° |
| 2026-05-07 14:29 | 30.96028 | 114.75274 | 29228 ft | 462 kts | 68° |
| 2026-05-07 14:30 | 30.98298 | 114.82313 | 29227 ft | 464 kts | 68° |
| 2026-05-07 14:30 | 31.00561 | 114.89349 | 29227 ft | 465 kts | 69° |
| 2026-05-07 14:31 | 31.02826 | 114.96403 | 29228 ft | 466 kts | 69° |
| 2026-05-07 14:31 | 31.05099 | 115.03498 | 29229 ft | 469 kts | 69° |
| 2026-05-07 14:32 | 31.07369 | 115.10604 | 29227 ft | 469 kts | 69° |
| 2026-05-07 14:32 | 31.09637 | 115.17723 | 29227 ft | 468 kts | 69° |
| 2026-05-07 14:33 | 31.11902 | 115.24867 | 29228 ft | 468 kts | 70° |
| 2026-05-07 14:33 | 31.14162 | 115.31976 | 29228 ft | 469 kts | 69° |
| 2026-05-07 14:34 | 31.16463 | 115.39068 | 29228 ft | 468 kts | 69° |
| 2026-05-07 14:34 | 31.18757 | 115.46156 | 29229 ft | 468 kts | 69° |
| 2026-05-07 14:35 | 31.21041 | 115.53233 | 29237 ft | 468 kts | 69° |
| 2026-05-07 14:35 | 31.23338 | 115.60365 | 29244 ft | 468 kts | 69° |
| 2026-05-07 14:36 | 31.25611 | 115.67438 | 29252 ft | 467 kts | 69° |
| 2026-05-07 14:36 | 31.27882 | 115.74516 | 29255 ft | 467 kts | 69° |
| 2026-05-07 14:37 | 31.30168 | 115.81659 | 29255 ft | 468 kts | 69° |
| 2026-05-07 14:37 | 31.33133 | 115.90923 | 29255 ft | 467 kts | 69° |
| 2026-05-07 14:38 | 31.35442 | 115.97990 | 29255 ft | 467 kts | 69° |
| 2026-05-07 14:38 | 31.37747 | 116.05061 | 29255 ft | 467 kts | 69° |
| 2026-05-07 14:39 | 31.40063 | 116.12181 | 29255 ft | 467 kts | 69° |
| 2026-05-07 14:39 | 31.42366 | 116.19281 | 29255 ft | 467 kts | 69° |
| 2026-05-07 14:40 | 31.44664 | 116.26385 | 29255 ft | 467 kts | 69° |
| 2026-05-07 14:40 | 31.46956 | 116.33487 | 29255 ft | 467 kts | 69° |
| 2026-05-07 14:41 | 31.49246 | 116.40599 | 29255 ft | 467 kts | 69° |
| 2026-05-07 14:41 | 31.51547 | 116.47761 | 29255 ft | 467 kts | 69° |
| 2026-05-07 14:42 | 31.53836 | 116.54900 | 29255 ft | 467 kts | 69° |
| 2026-05-07 14:42 | 31.56138 | 116.62097 | 29255 ft | 467 kts | 69° |
| 2026-05-07 14:43 | 31.58413 | 116.69220 | 29255 ft | 467 kts | 69° |
| 2026-05-07 14:43 | 31.60704 | 116.76406 | 29255 ft | 467 kts | 69° |
| 2026-05-07 14:44 | 31.62968 | 116.83527 | 29255 ft | 467 kts | 69° |
| 2026-05-07 14:44 | 31.65218 | 116.90617 | 29255 ft | 468 kts | 70° |
| 2026-05-07 14:45 | 31.67488 | 116.97760 | 29255 ft | 468 kts | 70° |
| 2026-05-07 14:45 | 31.69751 | 117.04959 | 29255 ft | 467 kts | 71° |
| 2026-05-07 14:46 | 31.71969 | 117.12134 | 29254 ft | 465 kts | 72° |
| 2026-05-07 14:46 | 31.74158 | 117.19252 | 29254 ft | 464 kts | 72° |
| 2026-05-07 14:47 | 31.76265 | 117.26418 | 29252 ft | 462 kts | 77° |
| 2026-05-07 14:47 | 31.77200 | 117.33773 | 29254 ft | 455 kts | 94° |
| 2026-05-07 14:48 | 31.76770 | 117.41175 | 29254 ft | 454 kts | 98° |
| 2026-05-07 14:48 | 31.76262 | 117.48538 | 29254 ft | 455 kts | 98° |
| 2026-05-07 14:49 | 31.75725 | 117.55935 | 29254 ft | 454 kts | 98° |
| 2026-05-07 14:49 | 31.75215 | 117.63349 | 29254 ft | 455 kts | 98° |
| 2026-05-07 14:50 | 31.74696 | 117.70745 | 29254 ft | 455 kts | 98° |
| 2026-05-07 14:50 | 31.74176 | 117.78122 | 29256 ft | 453 kts | 98° |
| 2026-05-07 14:51 | 31.73648 | 117.85471 | 29256 ft | 453 kts | 98° |
| 2026-05-07 14:51 | 31.73100 | 117.92853 | 29255 ft | 454 kts | 98° |
| 2026-05-07 14:52 | 31.72552 | 118.00204 | 29255 ft | 454 kts | 98° |
| 2026-05-07 14:52 | 31.72010 | 118.07608 | 29254 ft | 454 kts | 98° |
| 2026-05-07 14:53 | 31.71482 | 118.14967 | 29254 ft | 453 kts | 98° |
| 2026-05-07 14:53 | 31.70991 | 118.22311 | 29256 ft | 453 kts | 98° |
| 2026-05-07 14:54 | 31.70474 | 118.29696 | 29255 ft | 453 kts | 98° |
| 2026-05-07 14:54 | 31.69947 | 118.37079 | 29256 ft | 454 kts | 98° |
| 2026-05-07 14:55 | 31.69426 | 118.44429 | 29254 ft | 454 kts | 98° |
| 2026-05-07 14:55 | 31.68897 | 118.51813 | 29254 ft | 453 kts | 98° |
| 2026-05-07 14:56 | 31.68362 | 118.59218 | 29255 ft | 453 kts | 98° |
| 2026-05-07 14:56 | 31.67816 | 118.66607 | 29255 ft | 454 kts | 98° |
| 2026-05-07 14:57 | 31.67265 | 118.73991 | 29255 ft | 452 kts | 98° |
| 2026-05-07 14:57 | 31.66726 | 118.81295 | 29256 ft | 454 kts | 98° |
| 2026-05-07 14:58 | 31.66181 | 118.88708 | 29255 ft | 454 kts | 98° |
| 2026-05-07 14:58 | 31.65633 | 118.96033 | 29255 ft | 453 kts | 98° |
| 2026-05-07 14:59 | 31.65076 | 119.03406 | 29255 ft | 454 kts | 98° |
| 2026-05-07 14:59 | 31.64650 | 119.10801 | 29255 ft | 455 kts | 96° |
| 2026-05-07 15:00 | 31.64302 | 119.18200 | 29255 ft | 455 kts | 96° |
| 2026-05-07 15:00 | 31.63980 | 119.25632 | 29255 ft | 455 kts | 96° |
| 2026-05-07 15:01 | 31.63650 | 119.33055 | 28971 ft | 459 kts | 96° |
| 2026-05-07 15:01 | 31.63483 | 119.36778 | 28625 ft | 455 kts | 96° |
| 2026-05-07 15:01 | 31.63315 | 119.40458 | 28271 ft | 451 kts | 96° |
| 2026-05-07 15:02 | 31.63146 | 119.44080 | 27903 ft | 450 kts | 96° |
| 2026-05-07 15:02 | 31.62974 | 119.47736 | 27531 ft | 450 kts | 96° |
| 2026-05-07 15:02 | 31.62799 | 119.51415 | 27157 ft | 449 kts | 96° |
| 2026-05-07 15:02 | 31.62623 | 119.55077 | 26769 ft | 449 kts | 96° |
| 2026-05-07 15:03 | 31.62448 | 119.58695 | 26371 ft | 448 kts | 96° |
| 2026-05-07 15:03 | 31.62273 | 119.62312 | 25972 ft | 447 kts | 96° |
| 2026-05-07 15:03 | 31.62100 | 119.65851 | 25580 ft | 445 kts | 96° |
| 2026-05-07 15:03 | 31.61961 | 119.68735 | 25259 ft | 441 kts | 96° |
| 2026-05-07 15:04 | 31.61798 | 119.72286 | 24858 ft | 437 kts | 96° |
| 2026-05-07 15:04 | 31.61638 | 119.75819 | 24456 ft | 433 kts | 96° |
| 2026-05-07 15:04 | 31.61478 | 119.79321 | 24021 ft | 429 kts | 96° |
| 2026-05-07 15:04 | 31.61316 | 119.82822 | 23516 ft | 426 kts | 96° |
| 2026-05-07 15:05 | 31.61155 | 119.86303 | 23008 ft | 420 kts | 96° |
| 2026-05-07 15:05 | 31.60998 | 119.89655 | 22512 ft | 415 kts | 96° |
| 2026-05-07 15:05 | 31.60839 | 119.93006 | 21963 ft | 408 kts | 96° |
| 2026-05-07 15:05 | 31.60681 | 119.96321 | 21408 ft | 401 kts | 96° |
| 2026-05-07 15:06 | 31.60531 | 119.99533 | 20863 ft | 397 kts | 95° |
| 2026-05-07 15:06 | 31.60393 | 120.02756 | 20312 ft | 394 kts | 95° |
| 2026-05-07 15:06 | 31.60268 | 120.05943 | 19762 ft | 391 kts | 94° |
| 2026-05-07 15:06 | 31.60155 | 120.09101 | 19213 ft | 387 kts | 94° |
| 2026-05-07 15:07 | 31.60050 | 120.12221 | 18665 ft | 384 kts | 94° |
| 2026-05-07 15:07 | 31.59940 | 120.15345 | 18106 ft | 377 kts | 94° |
| 2026-05-07 15:07 | 31.59827 | 120.18394 | 17553 ft | 371 kts | 94° |
| 2026-05-07 15:07 | 31.59710 | 120.21375 | 17005 ft | 366 kts | 94° |
| 2026-05-07 15:08 | 31.59585 | 120.24342 | 16452 ft | 361 kts | 94° |
| 2026-05-07 15:08 | 31.59450 | 120.27237 | 15934 ft | 355 kts | 94° |
| 2026-05-07 15:08 | 31.59252 | 120.30117 | 15425 ft | 349 kts | 100° |
| 2026-05-07 15:08 | 31.58687 | 120.32851 | 14930 ft | 344 kts | 107° |
| 2026-05-07 15:09 | 31.57982 | 120.35501 | 14448 ft | 339 kts | 108° |
| 2026-05-07 15:09 | 31.57237 | 120.38101 | 13998 ft | 334 kts | 109° |
| 2026-05-07 15:09 | 31.56478 | 120.40655 | 13550 ft | 332 kts | 109° |
| 2026-05-07 15:09 | 31.55701 | 120.43204 | 13099 ft | 330 kts | 109° |
| 2026-05-07 15:10 | 31.54918 | 120.45735 | 12643 ft | 326 kts | 109° |
| 2026-05-07 15:10 | 31.54153 | 120.48203 | 12264 ft | 320 kts | 109° |
| 2026-05-07 15:10 | 31.53407 | 120.50631 | 11936 ft | 313 kts | 109° |
| 2026-05-07 15:10 | 31.52685 | 120.53006 | 11611 ft | 307 kts | 109° |
| 2026-05-07 15:11 | 31.51982 | 120.55335 | 11286 ft | 301 kts | 109° |
| 2026-05-07 15:11 | 31.51291 | 120.57630 | 10960 ft | 296 kts | 109° |
| 2026-05-07 15:11 | 31.50609 | 120.59905 | 10632 ft | 292 kts | 109° |
| 2026-05-07 15:11 | 31.49948 | 120.62105 | 10310 ft | 287 kts | 108° |
| 2026-05-07 15:12 | 31.49291 | 120.64294 | 9986 ft | 284 kts | 108° |
| 2026-05-07 15:12 | 31.48638 | 120.66470 | 9660 ft | 280 kts | 109° |
| 2026-05-07 15:12 | 31.47997 | 120.68601 | 9357 ft | 276 kts | 109° |
| 2026-05-07 15:12 | 31.47359 | 120.70723 | 9054 ft | 273 kts | 109° |
| 2026-05-07 15:13 | 31.46743 | 120.72774 | 8895 ft | 265 kts | 109° |
| 2026-05-07 15:13 | 31.46132 | 120.74805 | 8905 ft | 263 kts | 108° |
| 2026-05-07 15:13 | 31.45523 | 120.76833 | 8904 ft | 267 kts | 109° |
| 2026-05-07 15:13 | 31.44906 | 120.78882 | 8899 ft | 267 kts | 109° |
| 2026-05-07 15:14 | 31.44290 | 120.80926 | 8899 ft | 266 kts | 109° |
| 2026-05-07 15:14 | 31.43670 | 120.82981 | 8709 ft | 269 kts | 108° |
| 2026-05-07 15:14 | 31.43050 | 120.85032 | 8473 ft | 264 kts | 108° |
| 2026-05-07 15:14 | 31.42442 | 120.87043 | 8247 ft | 259 kts | 108° |
| 2026-05-07 15:15 | 31.41851 | 120.88996 | 8060 ft | 249 kts | 108° |
| 2026-05-07 15:15 | 31.41288 | 120.90855 | 7816 ft | 241 kts | 108° |
| 2026-05-07 15:15 | 31.40731 | 120.92695 | 7611 ft | 235 kts | 108° |
| 2026-05-07 15:15 | 31.40181 | 120.94517 | 7379 ft | 237 kts | 108° |
| 2026-05-07 15:16 | 31.39635 | 120.96317 | 7198 ft | 234 kts | 108° |
| 2026-05-07 15:16 | 31.39094 | 120.98101 | 6993 ft | 235 kts | 108° |
| 2026-05-07 15:16 | 31.38540 | 120.99922 | 6785 ft | 234 kts | 108° |
| 2026-05-07 15:16 | 31.37996 | 121.01711 | 6577 ft | 233 kts | 108° |
| 2026-05-07 15:17 | 31.37466 | 121.03452 | 6355 ft | 223 kts | 108° |
| 2026-05-07 15:17 | 31.36946 | 121.05157 | 6144 ft | 219 kts | 108° |
| 2026-05-07 15:17 | 31.36439 | 121.06824 | 5950 ft | 219 kts | 108° |
| 2026-05-07 15:17 | 31.35928 | 121.08501 | 5900 ft | 216 kts | 108° |
| 2026-05-07 15:18 | 31.35424 | 121.10162 | 5905 ft | 219 kts | 108° |
| 2026-05-07 15:18 | 31.34905 | 121.11849 | 5899 ft | 219 kts | 108° |
| 2026-05-07 15:18 | 31.34391 | 121.13506 | 5890 ft | 211 kts | 108° |
| 2026-05-07 15:18 | 31.33903 | 121.15075 | 5898 ft | 206 kts | 108° |
| 2026-05-07 15:19 | 31.33408 | 121.16668 | 5905 ft | 206 kts | 108° |
| 2026-05-07 15:19 | 31.32921 | 121.18237 | 5910 ft | 207 kts | 108° |
| 2026-05-07 15:19 | 31.32413 | 121.19820 | 5895 ft | 207 kts | 112° |
| 2026-05-07 15:19 | 31.31600 | 121.21207 | 5892 ft | 210 kts | 135° |
| 2026-05-07 15:20 | 31.30320 | 121.22050 | 5902 ft | 215 kts | 160° |
| 2026-05-07 15:20 | 31.28821 | 121.22285 | 5910 ft | 218 kts | 174° |
| 2026-05-07 15:20 | 31.27318 | 121.22353 | 5899 ft | 218 kts | 174° |
| 2026-05-07 15:20 | 31.25790 | 121.22426 | 5898 ft | 218 kts | 174° |
| 2026-05-07 15:21 | 31.24287 | 121.22505 | 5899 ft | 218 kts | 174° |
| 2026-05-07 15:21 | 31.22778 | 121.22588 | 5900 ft | 218 kts | 174° |
| 2026-05-07 15:21 | 31.21262 | 121.22671 | 5899 ft | 218 kts | 174° |
| 2026-05-07 15:21 | 31.19736 | 121.22757 | 5899 ft | 218 kts | 174° |
| 2026-05-07 15:22 | 31.18225 | 121.22840 | 5900 ft | 218 kts | 174° |
| 2026-05-07 15:22 | 31.16707 | 121.22923 | 5740 ft | 220 kts | 174° |
| 2026-05-07 15:22 | 31.15187 | 121.23006 | 5500 ft | 219 kts | 174° |
| 2026-05-07 15:22 | 31.13672 | 121.23089 | 5216 ft | 218 kts | 174° |
| 2026-05-07 15:23 | 31.12167 | 121.23171 | 4914 ft | 217 kts | 173° |
| 2026-05-07 15:23 | 31.10700 | 121.23251 | 4602 ft | 208 kts | 173° |
| 2026-05-07 15:23 | 31.09278 | 121.23329 | 4326 ft | 204 kts | 173° |
| 2026-05-07 15:23 | 31.07843 | 121.23409 | 4037 ft | 207 kts | 173° |
| 2026-05-07 15:24 | 31.06428 | 121.23487 | 3767 ft | 201 kts | 173° |
| 2026-05-07 15:24 | 31.05029 | 121.23563 | 3493 ft | 196 kts | 173° |
| 2026-05-07 15:24 | 31.03681 | 121.23644 | 3243 ft | 195 kts | 171° |
| 2026-05-07 15:24 | 31.02408 | 121.24096 | 3002 ft | 188 kts | 142° |
| 2026-05-07 15:25 | 31.01560 | 121.25169 | 2789 ft | 180 kts | 113° |
| 2026-05-07 15:25 | 31.01235 | 121.26561 | 2591 ft | 175 kts | 89° |
| 2026-05-07 15:25 | 31.01279 | 121.27962 | 2406 ft | 173 kts | 83° |
| 2026-05-07 15:25 | 31.01358 | 121.29369 | 2203 ft | 173 kts | 83° |
| 2026-05-07 15:26 | 31.01423 | 121.30765 | 2002 ft | 173 kts | 83° |
| 2026-05-07 15:26 | 31.01481 | 121.32147 | 1892 ft | 170 kts | 83° |
| 2026-05-07 15:26 | 31.01754 | 121.33480 | 1897 ft | 168 kts | 58° |
| 2026-05-07 15:26 | 31.02626 | 121.34327 | 1897 ft | 169 kts | 19° |
| 2026-05-07 15:27 | 31.03801 | 121.34465 | 1919 ft | 173 kts | 2° |
| 2026-05-07 15:27 | 31.05011 | 121.34418 | 1893 ft | 173 kts | 1° |
| 2026-05-07 15:27 | 31.06205 | 121.34356 | 1900 ft | 172 kts | 1° |
| 2026-05-07 15:27 | 31.07414 | 121.34291 | 1899 ft | 173 kts | 1° |
| 2026-05-07 15:28 | 31.08612 | 121.34226 | 1899 ft | 173 kts | 1° |
| 2026-05-07 15:28 | 31.09810 | 121.34162 | 1696 ft | 173 kts | 1° |
| 2026-05-07 15:28 | 31.10990 | 121.34099 | 1478 ft | 168 kts | 1° |
| 2026-05-07 15:28 | 31.12156 | 121.34036 | 1255 ft | 166 kts | 0° |
| 2026-05-07 15:29 | 31.13232 | 121.33978 | 1047 ft | 143 kts | 1° |
| 2026-05-07 15:29 | 31.14154 | 121.33929 | 877 ft | 130 kts | 1° |
| 2026-05-07 15:29 | 31.15067 | 121.33880 | 695 ft | 129 kts | 1° |
| 2026-05-07 15:29 | 31.15949 | 121.33834 | 513 ft | 128 kts | 1° |
| 2026-05-07 15:30 | 31.16835 | 121.33791 | 346 ft | 127 kts | 1° |
| 2026-05-07 15:30 | 31.17713 | 121.33745 | 186 ft | 125 kts | 0° |
| 2026-05-07 15:30 | 31.18556 | 121.33696 | 22 ft | 117 kts | 360° |
| 2026-05-07 15:30 | 31.19201 | 121.33666 | 13 ft | 62 kts | 356° |
| 2026-05-07 15:31 | 31.19505 | 121.33649 | 16 ft | 34 kts | 358° |
| 2026-05-07 15:31 | 31.19721 | 121.33635 | 17 ft | 27 kts | 355° |
| 2026-05-07 15:31 | 31.19891 | 121.33622 | 18 ft | 22 kts | 357° |
| 2026-05-07 15:31 | 31.20046 | 121.33611 | 16 ft | 22 kts | 358° |
| 2026-05-07 15:32 | 31.20202 | 121.33589 | 16 ft | 24 kts | 345° |
| 2026-05-07 15:32 | 31.20353 | 121.33515 | 16 ft | 21 kts | 333° |
| 2026-05-07 15:32 | 31.20470 | 121.33437 | 19 ft | 17 kts | 331° |
| 2026-05-07 15:32 | 31.20572 | 121.33393 | 19 ft | 14 kts | 355° |
| 2026-05-07 15:33 | 31.20693 | 121.33390 | 19 ft | 22 kts | 2° |
| 2026-05-07 15:33 | 31.20852 | 121.33379 | 19 ft | 23 kts | 355° |
| 2026-05-07 15:33 | 31.21017 | 121.33369 | 19 ft | 24 kts | 358° |
| 2026-05-07 15:33 | 31.21168 | 121.33357 | 19 ft | 19 kts | 357° |
| 2026-05-07 15:34 | 31.21275 | 121.33345 | 19 ft | 8 kts | 339° |
| 2026-05-07 15:34 | 31.21300 | 121.33296 | 19 ft | 6 kts | 267° |
| 2026-05-07 15:34 | 31.21298 | 121.33235 | 19 ft | 8 kts | 268° |
| 2026-05-07 15:34 | 31.21295 | 121.33147 | 19 ft | 14 kts | 267° |
| 2026-05-07 15:35 | 31.21291 | 121.33040 | 19 ft | 7 kts | 268° |
| 2026-05-07 15:35 | 31.21269 | 121.32980 | 19 ft | 9 kts | 212° |
| 2026-05-07 15:35 | 31.21201 | 121.32973 | 19 ft | 10 kts | 178° |
| 2026-05-07 15:35 | 31.21113 | 121.32976 | 19 ft | 14 kts | 177° |
| 2026-05-07 15:36 | 31.21006 | 121.32983 | 19 ft | 16 kts | 177° |
| 2026-05-07 15:36 | 31.20880 | 121.32991 | 19 ft | 19 kts | 176° |
| 2026-05-07 15:36 | 31.20743 | 121.32999 | 19 ft | 20 kts | 177° |
| 2026-05-07 15:36 | 31.20597 | 121.33007 | 19 ft | 22 kts | 176° |
| 2026-05-07 15:37 | 31.20444 | 121.33017 | 19 ft | 23 kts | 176° |
| 2026-05-07 15:37 | 31.20274 | 121.33028 | 19 ft | 25 kts | 177° |
| 2026-05-07 15:37 | 31.20096 | 121.33038 | 19 ft | 24 kts | 176° |
| 2026-05-07 15:37 | 31.19935 | 121.33048 | 19 ft | 23 kts | 177° |
| 2026-05-07 15:38 | 31.19778 | 121.33057 | 19 ft | 22 kts | 177° |
| 2026-05-07 15:38 | 31.19620 | 121.33067 | 19 ft | 23 kts | 176° |
| 2026-05-07 15:38 | 31.19456 | 121.33077 | 19 ft | 23 kts | 176° |
| 2026-05-07 15:38 | 31.19303 | 121.33085 | 19 ft | 18 kts | 177° |
| 2026-05-07 15:39 | 31.19209 | 121.33090 | 19 ft | 8 kts | 181° |
| 2026-05-07 15:39 | 31.19172 | 121.33060 | 19 ft | 6 kts | 255° |
| 2026-05-07 15:39 | 31.19168 | 121.33012 | 19 ft | 5 kts | 265° |
| 2026-05-07 15:39 | 31.19166 | 121.32973 | 19 ft | 4 kts | 266° |
| 2026-05-07 15:40 | 31.19164 | 121.32929 | 19 ft | 5 kts | 266° |
| 2026-05-07 15:40 | 31.19162 | 121.32883 | 19 ft | 6 kts | 267° |
| 2026-05-07 15:40 | 31.19160 | 121.32825 | 19 ft | 7 kts | 268° |
| 2026-05-07 15:40 | 31.19158 | 121.32755 | 19 ft | 9 kts | 268° |
| 2026-05-07 15:41 | 31.19156 | 121.32676 | 19 ft | 9 kts | 267° |
| 2026-05-07 15:41 | 31.19155 | 121.32613 | 20 ft | 5 kts | 281° |
| 2026-05-07 15:41 | 31.19178 | 121.32583 | 21 ft | 5 kts | 340° |
| 2026-05-07 15:41 | 31.19231 | 121.32567 | 20 ft | 10 kts | 347° |
| 2026-05-07 15:42 | 31.19292 | 121.32549 | 19 ft | 4 kts | 343° |
| 2026-05-07 15:42 | 31.19316 | 121.32542 | 19 ft | 1 kts | 343° |
| 2026-05-07 15:42 | 31.19317 | 121.32541 | 19 ft | 0 kts | 343° |